الصفحة الرئيسية
METAR-TAF:

METAR-TAF

مطار :

مطار دوشانبي الدولي

دوشنبه, طاجيكستان

دائرة عرض: 38-33N, خط طول: 068-47E, ارتفاع: 803 متر

مراقبة الطقس الحالي

تاريخ ووقت الإصدار 33 دقيقة قبل الساعة 00:30UTC
ريح 2 عقدةمن اتجاهات متغيرة
درجة الحرارة 20°درجة مئوية
الرطوبة 49%
ضغط 1008 hPa
الرؤية 10 كم أو أكثر
غيوم قليلة على ارتفاع 6600 قدم, مزنة ركامية.
غيوم متفرقة على ارتفاع 13000 قدم

METAR: UTDD 240030Z VRB01MPS 9999 FEW066CB SCT130 20/09 Q1008 R09/D NOSIG RMK QFE688/0917

زمن: 06:03 (01:03 UTC)

توقعات

تاريخ ووقت الإصدار 1ساعة و 3 دقيقة قبل الساعة 00:00UTC
التوقعات صالحة من24 الساعة 01 UTC إلى 24 الساعة 13 UTC
ريح 4 عقدةمن اتجاهات متغيرة
الرؤية: 6000 متر
غيوم متفرقة على ارتفاع 6600 قدم, مزنة ركامية.
غيوم مفككة على ارتفاع 10000 قدم
نظرية الاحتمالات 40% :
مؤقت
من 24 الساعة 01 UTC إلى 24 الساعة 13 UTC
ريح 14 عقدةمن اتجاهات متغيرة
عاصفة رعدية

TAF: UTDD 240000Z 2401/2413 VRB02MPS 6000 SCT066CB BKN100 PROB40 TEMPO 2401/2413 VRB07MPS TS

أرصاد الطقس والتوقعات من أكثر من 4000 مطار (تقارير الطقس للمطار METAR والتنبؤ بالطقس بالمطارTAF).

المحطات المتاحة هي النقط الصفراء والحمراء على الخريطة.

حرك المؤشر فوق النقطة لمعرفة اسم المحطة.

ثم انقر لمعرفة أرصاد وتوقعات الطقس.

لتغيير الخارطة: اضغط على الأزرار الخضراء مع رمز الصليب الأسود للتكبير. على الزر الأخضر مع شرطة للتصغير، أو على الأسهم الخضراء للخرائط المجاورة.


METAR-TAF: